• Join FlightAware (Why Join?)
  • Login
  • US Flag 
09:04PM EDT


 

Airport Tracker/Info


-or-


 

Live Flight TrackerFlight Track Log ✈ JZA8750 ✈ 14-May-2013 ✈ CYVO - CYUL

Flight Track Log - Related Links

Times and Time Zones

All times are in EDT time to prevent confusion due to time zone crossing. See the JZA8750 flight status page for this flight to view local times or setup timezone preferences in your user account.

Time Position Orientation Groundspeed Altitude Reporting Facility
EDT Latitude Longitude Course Direction KTS MPH feet Rate Location/Type
06:50AM 47.7844 -77.3327 132° Southeast  Level Estimated
06:51AM 47.7394 -77.2582 132° Southeast  Level Estimated
06:52AM 47.6944 -77.1838 132° Southeast  Level Estimated
06:53AM 47.6493 -77.1095 132° Southeast  Level Estimated
06:54AM 47.6042 -77.0353 132° Southeast  Level Estimated
06:54AM 47.6167 -77.4167 132° Southeast 260 299 12,300  Level Montreal Center
06:55AM 47.5590 -76.9613 132° Southeast  Level Estimated
06:55AM 47.5667 -77.3667 146° Southeast 210 242 13,600  Level Montreal Center
06:56AM 47.5138 -76.8874 132° Southeast  Level Estimated
06:56AM 47.5333 -77.3167 135° Southeast 210 242 14,700  Level Montreal Center
06:57AM 47.4685 -76.8136 132° Southeast  Level Estimated
06:57AM 47.5000 -77.2333 121° Southeast 210 242 15,700  Level Montreal Center
06:58AM 47.4232 -76.7399 132° Southeast  Level Estimated
06:58AM 47.4667 -77.1667 126° Southeast 220 253 16,600  Level Montreal Center
06:59AM 47.3778 -76.6664 132° Southeast  Level Estimated
06:59AM 47.4167 -77.0833 132° Southeast 220 253 17,600  Level Montreal Center
07:00AM 47.3833 -77.0167 126° Southeast 230 265 18,400 840 Climbing Montreal Center
07:01AM 47.3500 -76.9333 121° Southeast 230 265 19,300 840 Climbing Montreal Center
07:02AM 47.3167 -76.8333 116° Southeast 230 265 20,100 780 Climbing Montreal Center
07:03AM 47.2833 -76.7667 126° Southeast 230 265 20,900 780 Climbing Montreal Center
07:04AM 47.2333 -76.6833 131° Southeast 230 265 21,700 720 Climbing Montreal Center
07:05AM 47.2000 -76.6167 126° Southeast 240 276 22,400 600 Climbing Montreal Center
07:06AM 47.1667 -76.5167 116° Southeast 240 276 23,000 300 Climbing Montreal Center
07:07AM 47.1167 -76.4333 131° Southeast 260 299 23,000  Level Montreal Center
07:08AM 47.0833 -76.3333 116° Southeast 280 322 23,000  Level Montreal Center
07:09AM 47.0333 -76.2333 126° Southeast 290 334 23,000  Level Montreal Center
07:10AM 46.9833 -76.1333 126° Southeast 290 334 23,000  Level Montreal Center
07:11AM 46.9333 -76.0333 126° Southeast 300 345 23,000  Level Montreal Center
07:12AM 46.8833 -75.9500 131° Southeast 300 345 23,000  Level Montreal Center
07:13AM 46.8333 -75.8500 126° Southeast 300 345 23,000 -60 Level Montreal Center
07:14AM 46.8000 -75.7500 116° Southeast 300 345 22,900 -420 Descending Montreal Center
07:15AM 46.7500 -75.6167 119° Southeast 310 357 22,200 -600 Descending Montreal Center
07:16AM 46.7000 -75.5333 131° Southeast 320 368 21,700 -600 Descending Montreal Center
07:17AM 46.6333 -75.4333 134° Southeast 330 380 21,000 -660 Descending Montreal Center
07:18AM 46.5667 -75.3333 134° Southeast 330 380 20,400 -600 Descending Montreal Center
07:19AM 46.5167 -75.2333 126° Southeast 320 368 19,800 -600 Descending Montreal Center
07:20AM 46.4500 -75.1333 134° Southeast 320 368 19,200 -600 Descending Montreal Center
07:21AM 46.4000 -75.0500 131° Southeast 310 357 18,600 -600 Descending Montreal Center
07:22AM 46.3333 -74.9500 134° Southeast 310 357 18,000 -540 Descending Montreal Center
07:23AM 46.2667 -74.8500 134° Southeast 310 357 17,600 -540 Descending Montreal Center
07:24AM 46.2000 -74.7500 134° Southeast 310 357 17,000 -660 Descending Montreal Center
07:25AM 46.1500 -74.6667 131° Southeast 310 357 16,300 -840 Descending Montreal Center
07:26AM 46.1000 -74.5833 131° Southeast 300 345 15,400 -960 Descending Montreal Center
07:27AM 46.0333 -74.5000 139° Southeast 300 345 14,400 -1,140 Descending Montreal Center
07:28AM 45.9667 -74.4167 139° Southeast 300 345 13,200 -1,140 Descending Montreal Center
07:29AM 45.9167 -74.3500 137° Southeast 290 334 12,200 -1,020 Descending Montreal Center
07:30AM 45.8500 -74.2667 139° Southeast 280 322 11,200 -1,080 Descending Montreal Center
07:31AM 45.7833 -74.1833 139° Southeast 280 322 10,100 -1,020 Descending Montreal Center
07:32AM 45.7333 -74.1167 137° Southeast 270 311 9,200 -960 Descending Montreal Center
07:33AM 45.7000 -74.0167 115° Southeast 270 311 8,200 -1,080 Descending Montreal Center
07:34AM 45.6500 -73.9333 131° Southeast 260 299 7,100 -1,080 Descending Montreal Center
07:35AM 45.6167 -73.8667 126° Southeast 260 299 6,100 -1,020 Descending Montreal Center
07:36AM 45.6000 -73.7667 103° East 250 288 5,100 -1,020 Descending Montreal Center
07:37AM 45.6167 -73.7000 70° East 230 265 4,100 -900 Descending Montreal Center
07:38AM 45.6333 -73.6000 77° East 240 276 3,300 -660 Descending Montreal Center
07:39AM 45.5833 -73.6000 180° South 210 242 2,800 -660 Descending Montreal Center
07:40AM 45.5333 -73.6500 215° Southwest 180 207 2,000 -840 Descending Montreal Center
07:41AM 45.5000 -73.6667 199° South 150 173 1,200 -840 Descending Montreal Center